Time;durP1;ratioP1;P1;durP2;ratioP2;P2;SDS_P1;SDS_P2;PMS_P1;PMS_P2;Temp;Humidity;BMP_temperature;BMP_pressure;BME280_temperature;BME280_humidity;BME280_pressure;Samples;Min_cycle;Max_cycle;Signal;HPM_P1;HPM_P2
2021/09/12 00:00:40;;;;;;;13.10;8.70;;;;;;;13.36;77.28;96984.56;4981111;28;20060;-67
2021/09/12 00:03:07;;;;;;;14.68;9.18;;;;;;;13.18;78.81;96983.66;4980288;28;20056;-67
2021/09/12 00:05:34;;;;;;;13.60;9.20;;;;;;;13.04;78.80;96964.09;4982224;28;20145;-67
2021/09/12 00:08:01;;;;;;;18.13;8.50;;;;;;;13.15;77.87;96984.44;4982637;28;20424;-66
2021/09/12 00:10:28;;;;;;;11.40;8.43;;;;;;;13.20;77.83;96997.97;4980354;28;20123;-66
2021/09/12 00:12:56;;;;;;;14.13;8.57;;;;;;;13.20;78.49;96988.84;4981469;28;20532;-67
2021/09/12 00:15:24;;;;;;;11.40;7.93;;;;;;;13.20;78.22;96975.72;4981384;28;20050;-67
2021/09/12 00:17:52;;;;;;;13.02;8.48;;;;;;;13.20;78.72;96992.41;4981226;28;20060;-66
2021/09/12 00:20:18;;;;;;;17.65;9.38;;;;;;;13.15;78.96;96989.22;4980298;28;20058;-67
2021/09/12 00:22:46;;;;;;;14.80;9.32;;;;;;;12.97;78.31;96938.22;4981701;28;20061;-67
2021/09/12 00:25:14;;;;;;;15.20;9.18;;;;;;;13.36;77.50;96989.31;4981817;28;20066;-67
2021/09/12 00:27:41;;;;;;;10.90;8.27;;;;;;;13.43;76.39;97051.41;4981696;28;20060;-67
2021/09/12 00:30:09;;;;;;;11.05;8.15;;;;;;;11.46;76.14;96681.69;4984412;28;20081;-67
2021/09/12 00:32:36;;;;;;;16.20;8.40;;;;;;;13.23;76.95;96966.59;4984374;28;20094;-66
2021/09/12 00:35:04;;;;;;;13.32;8.70;;;;;;;13.47;76.36;96979.03;4983063;28;20065;-66
2021/09/12 00:37:31;;;;;;;14.90;8.75;;;;;;;13.40;75.84;96974.25;4983176;28;20054;-67
2021/09/12 00:39:58;;;;;;;10.77;7.65;;;;;;;13.32;76.60;96966.25;4982809;28;20054;-67
2021/09/12 00:42:25;;;;;;;14.45;8.30;;;;;;;13.34;76.43;96981.38;4983152;28;20076;-67
2021/09/12 00:44:51;;;;;;;13.23;8.48;;;;;;;13.24;76.49;96968.22;4984929;28;20069;-67
2021/09/12 00:47:18;;;;;;;14.10;8.65;;;;;;;13.14;76.70;96957.81;4984375;28;20060;-67
2021/09/12 00:49:45;;;;;;;11.07;7.95;;;;;;;13.36;76.64;96984.56;4983158;28;20084;-67
2021/09/12 00:52:13;;;;;;;13.38;7.97;;;;;;;13.25;76.57;96969.81;4982789;28;20054;-68
2021/09/12 00:54:41;;;;;;;14.25;7.95;;;;;;;13.32;76.51;96978.19;4984394;28;20060;-68
2021/09/12 00:57:10;;;;;;;13.38;8.93;;;;;;;13.27;76.90;96977.75;4983989;28;20110;-67
2021/09/12 00:59:41;;;;;;;10.63;8.00;;;;;;;13.21;77.37;96971.78;4984040;28;20145;-67
2021/09/12 01:02:10;;;;;;;13.15;8.20;;;;;;;13.21;77.77;96982.09;4984060;28;20501;-68
2021/09/12 01:04:37;;;;;;;10.57;7.63;;;;;;;13.16;77.67;96968.56;4983037;28;20441;-67
2021/09/12 01:07:07;;;;;;;14.45;8.75;;;;;;;13.08;78.22;96975.25;4982985;28;20054;-66
2021/09/12 01:09:37;;;;;;;17.25;8.55;;;;;;;13.11;78.13;96978.06;4982938;28;20061;-67
2021/09/12 01:12:04;;;;;;;12.15;8.23;;;;;;;13.11;78.70;96974.47;4982922;28;20133;-66
2021/09/12 01:14:32;;;;;;;16.30;9.65;;;;;;;12.85;78.98;96944.13;4984155;28;20054;-66
2021/09/12 01:16:59;;;;;;;14.95;9.32;;;;;;;12.89;78.71;96954.06;4982288;28;20050;-67
2021/09/12 01:19:28;;;;;;;13.02;8.65;;;;;;;12.94;78.80;96977.94;4983960;28;20073;-67
2021/09/12 01:21:56;;;;;;;13.52;9.88;;;;;;;12.90;79.38;96969.56;4984002;28;20167;-67
2021/09/12 01:24:25;;;;;;;14.63;9.60;;;;;;;12.90;79.55;96979.91;4983605;28;20046;-67
2021/09/12 01:26:51;;;;;;;14.98;9.20;;;;;;;12.69;79.45;96927.75;4983685;28;20054;-67
2021/09/12 01:29:18;;;;;;;12.52;8.70;;;;;;;12.90;79.48;96972.34;4983954;28;20108;-66
2021/09/12 01:31:45;;;;;;;12.60;8.80;;;;;;;12.92;79.45;96974.72;4983962;28;20491;-67
2021/09/12 01:34:12;;;;;;;14.80;8.98;;;;;;;12.72;79.44;96942.81;4982015;28;20065;-67
2021/09/12 01:36:40;;;;;;;14.25;9.35;;;;;;;13.01;79.64;96967.66;4982043;28;20059;-67
2021/09/12 01:39:06;;;;;;;15.52;9.25;;;;;;;12.89;78.28;96937.38;4982934;28;20073;-67
2021/09/12 01:41:34;;;;;;;14.85;8.63;;;;;;;12.95;78.93;96969.19;4983485;28;20070;-67
2021/09/12 01:44:03;;;;;;;11.05;8.82;;;;;;;13.02;78.47;96969.28;4982224;28;20153;-67
2021/09/12 01:46:30;;;;;;;13.52;8.38;;;;;;;12.86;78.45;96949.28;4983270;28;20435;-67
2021/09/12 01:49:03;;;;;;;13.88;9.48;;;;;;;12.99;78.70;96981.13;4983825;28;20137;-67
2021/09/12 01:51:29;;;;;;;11.37;9.00;;;;;;;12.82;79.46;96967.91;4983704;28;20058;-68
2021/09/12 01:53:57;;;;;;;17.25;9.50;;;;;;;12.75;79.48;96969.84;4981895;28;20510;-67
2021/09/12 01:56:24;;;;;;;13.40;8.32;;;;;;;12.65;78.77;96938.00;4983639;28;20055;-66
2021/09/12 01:58:50;;;;;;;17.17;9.07;;;;;;;12.72;79.25;96956.72;4983371;28;20054;-68
2021/09/12 02:01:17;;;;;;;14.27;8.85;;;;;;;12.79;79.21;96960.34;4981757;28;20059;-67
2021/09/12 02:03:46;;;;;;;12.77;8.77;;;;;;;12.57;78.74;96916.91;4982152;28;20055;-67
2021/09/12 02:06:14;;;;;;;17.58;9.50;;;;;;;12.69;80.14;96983.31;4983662;28;20539;-67
2021/09/12 02:08:41;;;;;;;24.35;9.98;;;;;;;11.89;81.94;96894.53;4983623;28;20578;-67
2021/09/12 02:11:09;;;;;;;14.15;9.63;;;;;;;11.81;81.19;96854.00;4983335;28;20054;-67
2021/09/12 02:13:36;;;;;;;16.70;9.07;;;;;;;12.16;80.56;96909.84;4982877;28;20065;-65
2021/09/12 02:16:03;;;;;;;17.60;9.85;;;;;;;12.42;83.12;96990.22;4983152;28;20062;-66
2021/09/12 02:18:30;;;;;;;14.75;9.82;;;;;;;12.28;84.98;96984.56;4982485;28;20088;-66
2021/09/12 02:20:57;;;;;;;13.80;8.73;;;;;;;12.40;83.46;96992.59;4982696;28;20065;-66
2021/09/12 02:23:23;;;;;;;17.25;10.15;;;;;;;12.47;82.92;96987.06;4981444;28;20056;-66
2021/09/12 02:25:50;;;;;;;17.33;10.38;;;;;;;11.94;83.73;96925.53;4983048;28;20046;-66
2021/09/12 02:28:18;;;;;;;15.07;9.02;;;;;;;12.31;84.15;96981.00;4981516;28;20057;-66
2021/09/12 02:30:45;;;;;;;11.70;8.82;;;;;;;12.43;82.67;96979.91;4982955;28;20053;-66
2021/09/12 02:33:13;;;;;;;14.07;9.25;;;;;;;12.42;82.16;96986.66;4981651;28;20236;-66
2021/09/12 02:35:39;;;;;;;13.32;9.27;;;;;;;12.42;82.21;96990.22;4983370;28;20050;-65
2021/09/12 02:38:06;;;;;;;15.43;10.10;;;;;;;12.45;81.83;96983.09;4982468;28;20050;-66
2021/09/12 02:40:33;;;;;;;14.18;9.20;;;;;;;12.29;82.54;96963.91;4983101;28;20157;-67
2021/09/12 02:43:00;;;;;;;14.02;8.50;;;;;;;12.04;82.19;96941.47;4982678;28;20081;-66
2021/09/12 02:45:26;;;;;;;17.08;9.93;;;;;;;11.87;82.13;96902.47;4983238;28;20494;-66
2021/09/12 02:47:53;;;;;;;11.85;9.05;;;;;;;12.37;81.83;96964.78;4982390;28;20085;-66
2021/09/12 02:50:20;;;;;;;14.82;9.60;;;;;;;12.40;82.20;96981.47;4981787;28;20368;-66
2021/09/12 02:52:47;;;;;;;13.63;9.25;;;;;;;12.44;82.16;96982.28;4982691;28;20494;-66
2021/09/12 02:55:14;;;;;;;11.85;9.07;;;;;;;12.34;81.71;96966.34;4980887;28;20070;-67
2021/09/12 02:57:41;;;;;;;13.95;9.68;;;;;;;12.54;81.16;96983.56;4981479;28;20445;-66
2021/09/12 03:00:08;;;;;;;17.17;9.05;;;;;;;12.58;80.59;96982.44;4982628;28;20123;-66
2021/09/12 03:02:35;;;;;;;18.60;9.23;;;;;;;12.58;80.67;96999.13;4982913;28;20050;-67
2021/09/12 03:05:02;;;;;;;13.93;9.20;;;;;;;12.51;80.74;96976.00;4982654;28;20435;-66
2021/09/12 03:07:29;;;;;;;11.38;9.32;;;;;;;11.88;81.34;96892.94;4982403;28;20050;-66
2021/09/12 03:09:55;;;;;;;14.68;8.85;;;;;;;10.89;81.74;96801.53;4981098;28;20058;-66
2021/09/12 03:12:22;;;;;;;18.20;9.50;;;;;;;12.37;81.91;96987.00;4980814;28;20490;-66
2021/09/12 03:14:49;;;;;;;17.50;9.32;;;;;;;12.40;81.92;96998.16;4980818;28;20085;-66
2021/09/12 03:17:16;;;;;;;13.98;9.05;;;;;;;12.10;81.47;96948.28;4982196;28;20046;-66
2021/09/12 03:19:43;;;;;;;16.73;9.38;;;;;;;12.39;81.62;96984.63;4982660;28;20156;-67
2021/09/12 03:22:10;;;;;;;11.52;9.40;;;;;;;12.10;81.25;96962.16;4980758;28;20054;-66
2021/09/12 03:24:37;;;;;;;14.38;9.93;;;;;;;12.33;81.58;96992.50;4982405;28;20050;-67
2021/09/12 03:27:04;;;;;;;16.42;9.52;;;;;;;12.08;81.86;96960.94;4982041;28;20054;-67
2021/09/12 03:29:31;;;;;;;14.30;10.98;;;;;;;12.26;81.90;96992.47;4982447;28;20046;-68
2021/09/12 03:31:57;;;;;;;19.15;10.57;;;;;;;12.23;82.27;96993.22;4980930;28;20065;-66
2021/09/12 03:34:24;;;;;;;22.30;11.60;;;;;;;12.17;81.50;96967.78;4982273;28;20054;-66
2021/09/12 03:36:52;;;;;;;19.73;12.45;;;;;;;11.93;81.80;96953.66;4982523;28;20058;-67
2021/09/12 03:39:19;;;;;;;18.60;11.85;;;;;;;12.19;82.06;96982.06;4982738;28;20150;-67
2021/09/12 03:41:45;;;;;;;22.42;11.45;;;;;;;12.22;82.04;96985.28;4980731;28;20088;-66
2021/09/12 03:44:12;;;;;;;20.92;11.07;;;;;;;12.17;82.37;96983.66;4981787;28;20054;-66
2021/09/12 03:46:39;;;;;;;18.10;10.40;;;;;;;12.14;82.64;96985.19;4981650;28;20440;-68
2021/09/12 03:49:06;;;;;;;16.63;10.85;;;;;;;11.54;82.29;96894.16;4980115;28;20050;-67
2021/09/12 03:51:33;;;;;;;17.67;10.90;;;;;;;11.84;82.25;96936.50;4981971;28;20638;-66
2021/09/12 03:54:00;;;;;;;15.50;10.50;;;;;;;12.11;82.72;96985.16;4982039;28;20050;-67
2021/09/12 03:56:27;;;;;;;15.77;10.85;;;;;;;12.10;82.91;96981.59;4981958;28;20068;-67
2021/09/12 03:58:53;;;;;;;17.38;9.80;;;;;;;12.13;82.90;96988.34;4981656;28;20069;-68
2021/09/12 04:01:20;;;;;;;19.65;11.68;;;;;;;11.37;83.28;96867.00;4979448;28;20360;-67
2021/09/12 04:03:47;;;;;;;21.70;12.63;;;;;;;11.70;83.24;96933.56;4981487;28;20509;-67
2021/09/12 04:06:14;;;;;;;20.75;12.15;;;;;;;11.87;83.29;96972.63;4979937;28;20476;-67
2021/09/12 04:08:41;;;;;;;20.63;12.07;;;;;;;11.48;83.58;96909.53;4979908;28;20069;-67
2021/09/12 04:11:07;;;;;;;21.05;13.18;;;;;;;11.44;83.70;96900.38;4981466;28;20054;-67
2021/09/12 04:13:34;;;;;;;17.30;11.13;;;;;;;11.52;83.55;96924.25;4979866;28;20492;-67
2021/09/12 04:16:01;;;;;;;18.63;12.07;;;;;;;11.94;84.25;96992.13;4980315;28;20050;-66
2021/09/12 04:18:28;;;;;;;14.20;10.35;;;;;;;10.00;84.05;96672.22;4981105;28;20119;-67
2021/09/12 04:20:54;;;;;;;19.58;10.82;;;;;;;12.11;84.09;96985.16;4981197;28;20065;-66
2021/09/12 04:23:21;;;;;;;15.75;10.60;;;;;;;12.11;84.27;96991.50;4981364;28;20051;-67
2021/09/12 04:25:48;;;;;;;13.77;11.20;;;;;;;12.26;83.17;96998.00;4979268;28;20525;-67
2021/09/12 04:28:16;;;;;;;16.80;10.98;;;;;;;12.31;83.18;97002.41;4979901;28;20054;-67
2021/09/12 04:30:43;;;;;;;19.65;10.85;;;;;;;12.39;82.51;97002.13;4981032;28;20440;-66
2021/09/12 04:33:09;;;;;;;16.67;10.50;;;;;;;12.48;82.35;96999.81;4980029;28;20065;-66
2021/09/12 04:35:36;;;;;;;16.52;10.48;;;;;;;12.60;81.38;96996.72;4979249;28;20054;-67
2021/09/12 04:38:03;;;;;;;15.75;9.63;;;;;;;12.64;80.90;97005.91;4979636;28;20058;-67
2021/09/12 04:40:31;;;;;;;15.82;9.32;;;;;;;12.69;80.89;96999.19;4979402;28;20164;-67
2021/09/12 04:42:58;;;;;;;19.40;11.27;;;;;;;12.73;80.84;97000.81;4980785;28;20068;-68
2021/09/12 04:45:25;;;;;;;17.38;12.55;;;;;;;10.93;79.81;96691.50;4980861;28;20069;-66
2021/09/12 04:47:51;;;;;;;16.40;10.82;;;;;;;12.99;78.94;96994.25;4981082;28;20132;-67
2021/09/12 04:50:18;;;;;;;20.88;12.50;;;;;;;13.06;79.20;96997.09;4980845;28;20065;-67
2021/09/12 04:52:47;;;;;;;18.83;12.23;;;;;;;13.15;78.76;96990.00;4979580;28;20058;-67
2021/09/12 04:55:14;;;;;;;15.00;11.15;;;;;;;13.23;78.62;96991.63;4980882;28;20064;-66
2021/09/12 04:57:41;;;;;;;16.38;10.20;;;;;;;12.99;77.70;96924.75;4979233;28;20050;-67
2021/09/12 05:00:08;;;;;;;15.00;10.85;;;;;;;13.11;76.85;96922.44;4981015;28;20584;-67
2021/09/12 05:02:35;;;;;;;14.73;9.43;;;;;;;13.32;77.17;96944.00;4980692;28;20046;-66
2021/09/12 05:05:02;;;;;;;13.55;8.95;;;;;;;13.75;76.95;96986.72;4979497;28;20380;-66
2021/09/12 05:07:29;;;;;;;14.40;9.18;;;;;;;13.94;75.90;96981.59;4979771;28;20060;-67
2021/09/12 05:09:56;;;;;;;12.23;9.00;;;;;;;14.06;75.84;96981.25;4980899;28;20050;-66
2021/09/12 05:12:23;;;;;;;12.15;9.60;;;;;;;13.62;75.13;96892.44;4979926;28;20058;-67
2021/09/12 05:14:50;;;;;;;16.33;10.38;;;;;;;14.34;75.06;96983.31;4981690;28;20051;-66
2021/09/12 05:17:17;;;;;;;21.67;13.27;;;;;;;14.48;74.95;96980.56;4983939;28;20069;-67
2021/09/12 05:19:43;;;;;;;25.10;13.55;;;;;;;14.52;74.71;96973.00;4982230;28;20543;-66
2021/09/12 05:22:10;;;;;;;26.13;14.55;;;;;;;14.40;74.84;96940.72;4982684;28;20054;-68
2021/09/12 05:24:37;;;;;;;22.85;12.57;;;;;;;14.54;74.37;96960.22;4983907;28;20054;-66
2021/09/12 05:27:03;;;;;;;17.75;13.70;;;;;;;14.50;74.00;96931.56;4984019;28;20520;-67
2021/09/12 05:29:30;;;;;;;23.90;13.73;;;;;;;14.98;74.23;96979.34;4982133;28;20505;-67
2021/09/12 05:31:57;;;;;;;19.95;14.30;;;;;;;15.12;73.30;96982.13;4983639;28;20133;-67
2021/09/12 05:34:24;;;;;;;23.95;13.23;;;;;;;15.26;72.63;96968.13;4983610;28;20054;-67
2021/09/12 05:36:50;;;;;;;21.25;12.27;;;;;;;15.38;71.39;96959.34;4983392;28;20432;-66
2021/09/12 05:39:17;;;;;;;21.20;12.52;;;;;;;14.42;70.30;96773.91;4982881;28;20053;-66
2021/09/12 05:41:45;;;;;;;24.85;10.98;;;;;;;15.88;70.20;96966.34;4983434;28;20064;-68
2021/09/12 05:44:12;;;;;;;24.92;12.40;;;;;;;16.07;69.97;96965.03;4983587;28;20209;-67
2021/09/12 05:46:39;;;;;;;17.20;11.25;;;;;;;15.51;69.65;96846.03;4983633;28;20056;-67
2021/09/12 05:49:06;;;;;;;13.82;9.07;;;;;;;16.41;69.23;96955.63;4981903;28;20100;-66
2021/09/12 05:51:32;;;;;;;18.38;9.77;;;;;;;16.72;68.68;96959.41;4981908;28;20057;-68
2021/09/12 05:53:59;;;;;;;14.20;10.75;;;;;;;16.91;67.86;96955.25;4981778;28;20429;-67
2021/09/12 05:56:26;;;;;;;16.02;10.00;;;;;;;17.10;67.41;96957.47;4981915;28;20068;-67
2021/09/12 05:58:53;;;;;;;24.85;11.15;;;;;;;17.28;66.74;96952.47;4983281;28;20902;-67
2021/09/12 06:01:19;;;;;;;17.95;11.05;;;;;;;17.46;66.23;96965.13;4981896;28;20076;-68
2021/09/12 06:03:47;;;;;;;13.75;10.52;;;;;;;17.67;65.33;96947.28;4981784;28;20584;-67
2021/09/12 06:06:14;;;;;;;21.30;11.07;;;;;;;17.88;65.34;96946.97;4983478;28;20051;-67
2021/09/12 06:08:41;;;;;;;18.05;12.70;;;;;;;18.04;64.13;96922.75;4981530;28;20057;-67
2021/09/12 06:11:10;;;;;;;20.30;11.43;;;;;;;18.27;63.08;96936.03;4981515;28;20157;-67
2021/09/12 06:13:38;;;;;;;19.42;11.30;;;;;;;18.56;62.42;96942.81;4982751;28;20531;-67
2021/09/12 06:16:06;;;;;;;20.27;11.15;;;;;;;18.50;62.09;96910.84;4981731;28;20054;-67
2021/09/12 06:18:34;;;;;;;13.52;11.23;;;;;;;19.07;60.97;96939.56;4982784;28;20066;-68
2021/09/12 06:21:03;;;;;;;17.40;11.00;;;;;;;19.25;60.69;96945.63;4982778;28;20058;-67
2021/09/12 06:23:31;;;;;;;17.40;10.80;;;;;;;19.17;59.49;96904.84;4982992;28;20054;-67
2021/09/12 06:26:02;;;;;;;16.40;9.88;;;;;;;18.99;58.91;96856.66;4962447;28;20046;-67
2021/09/12 06:28:29;;;;;;;13.98;10.25;;;;;;;19.47;58.46;96895.50;4963516;28;20089;-67
2021/09/12 06:30:56;;;;;;;18.10;11.02;;;;;;;20.05;57.99;96952.88;4963291;28;20469;-67
2021/09/12 06:33:22;;;;;;;27.48;20.10;;;;;;;20.33;56.21;96941.84;4963425;28;20453;-67
2021/09/12 06:35:49;;;;;;;20.90;16.17;;;;;;;20.57;55.75;96939.66;4963281;28;20066;-68
2021/09/12 06:38:16;;;;;;;21.58;12.73;;;;;;;20.77;54.78;96948.84;4962267;28;20058;-66
2021/09/12 06:40:43;;;;;;;25.65;19.20;;;;;;;20.89;54.86;96948.13;4962799;28;20064;-67
2021/09/12 06:43:10;;;;;;;21.15;14.93;;;;;;;21.09;55.79;96943.22;4962960;28;20050;-67
2021/09/12 06:45:37;;;;;;;23.10;14.05;;;;;;;20.78;55.51;96916.63;4961814;28;20433;-67
2021/09/12 06:48:04;;;;;;;20.77;14.88;;;;;;;21.13;54.00;96937.50;4962710;28;20462;-68
2021/09/12 06:50:30;;;;;;;18.75;15.63;;;;;;;21.45;54.57;96949.50;4962544;28;20061;-68
2021/09/12 06:52:57;;;;;;;21.65;16.02;;;;;;;21.45;53.25;96910.03;4962989;28;20051;-68
2021/09/12 06:55:24;;;;;;;19.50;15.05;;;;;;;21.27;52.84;96836.47;4963176;28;20065;-68
2021/09/12 06:57:50;;;;;;;29.58;13.23;;;;;;;22.01;54.10;96916.91;4962654;28;20062;-68
2021/09/12 07:00:18;;;;;;;20.83;13.68;;;;;;;21.66;53.71;96835.34;4963229;28;20047;-68
2021/09/12 07:02:44;;;;;;;18.70;10.25;;;;;;;22.56;50.78;96943.09;4961752;28;20081;-66
2021/09/12 07:05:12;;;;;;;20.02;10.65;;;;;;;22.78;51.11;96943.97;4962913;28;20421;-67
2021/09/12 07:07:39;;;;;;;16.02;10.05;;;;;;;22.82;48.07;96916.41;4962981;28;20054;-68
2021/09/12 07:10:06;;;;;;;15.05;9.52;;;;;;;23.21;42.75;96939.25;4961438;28;20070;-67
2021/09/12 07:12:33;;;;;;;15.98;10.25;;;;;;;23.48;45.31;96941.59;4961291;28;20059;-66
2021/09/12 07:15:00;;;;;;;15.40;9.52;;;;;;;23.21;42.13;96894.03;4962263;28;20070;-67
2021/09/12 07:17:26;;;;;;;14.80;9.30;;;;;;;23.42;39.53;96898.97;4960805;28;20061;-67
2021/09/12 07:19:54;;;;;;;17.92;9.68;;;;;;;23.76;39.48;96940.56;4960881;28;20046;-67
2021/09/12 07:22:20;;;;;;;10.80;9.63;;;;;;;23.65;38.88;96929.63;4962783;28;20095;-68
2021/09/12 07:24:47;;;;;;;13.45;9.18;;;;;;;23.86;39.51;96892.09;4972851;28;20062;-66
2021/09/12 07:27:14;;;;;;;13.70;9.32;;;;;;;24.26;38.46;96940.34;4981404;28;20509;-67
2021/09/12 07:29:44;;;;;;;21.20;10.18;;;;;;;24.42;38.10;96933.66;4982174;28;20062;-67
2021/09/12 07:32:11;;;;;;;17.15;9.98;;;;;;;24.38;38.73;96896.16;4982064;28;20077;-68
2021/09/12 07:34:38;;;;;;;12.77;10.27;;;;;;;24.85;38.72;96937.16;4982290;28;20053;-67
2021/09/12 07:37:04;;;;;;;16.00;9.25;;;;;;;24.91;38.29;96926.78;4981089;28;20058;-68
2021/09/12 07:39:31;;;;;;;17.63;10.15;;;;;;;24.89;38.69;96915.16;4982516;28;20058;-67
2021/09/12 07:41:58;;;;;;;13.30;9.13;;;;;;;25.12;37.04;96928.75;4982260;28;20089;-66
2021/09/12 07:44:25;;;;;;;13.73;9.57;;;;;;;25.05;37.71;96940.38;4981776;28;20062;-68
2021/09/12 07:46:52;;;;;;;16.23;10.18;;;;;;;24.46;38.41;96852.94;4981266;28;20064;-67
2021/09/12 07:49:20;;;;;;;13.93;8.93;;;;;;;25.09;39.05;96929.69;4981356;28;20449;-67
2021/09/12 07:51:47;;;;;;;16.25;8.88;;;;;;;24.88;37.71;96924.13;4981595;28;20133;-67
2021/09/12 07:54:13;;;;;;;15.55;9.43;;;;;;;25.09;37.01;96926.03;4980169;28;20112;-68
2021/09/12 07:56:40;;;;;;;15.38;9.77;;;;;;;25.08;37.92;96910.31;4980068;28;20046;-68
2021/09/12 07:59:07;;;;;;;16.05;9.50;;;;;;;24.87;37.88;96911.97;4981533;28;20520;-67
2021/09/12 08:01:34;;;;;;;17.98;10.98;;;;;;;24.95;38.03;96924.59;4979554;28;20092;-68
2021/09/12 08:04:01;;;;;;;21.52;12.48;;;;;;;24.97;38.52;96933.44;4981552;28;20657;-68
2021/09/12 08:06:28;;;;;;;13.73;9.68;;;;;;;25.13;39.30;96924.63;4981542;28;20073;-68
2021/09/12 08:08:56;;;;;;;14.18;9.75;;;;;;;24.91;38.14;96878.59;4979772;28;20143;-68
2021/09/12 08:11:22;;;;;;;17.60;9.88;;;;;;;25.11;38.49;96920.72;4979885;28;20061;-68
2021/09/12 08:13:49;;;;;;;11.48;10.23;;;;;;;25.00;36.99;96912.66;4980799;28;20490;-66
2021/09/12 08:16:16;;;;;;;15.00;10.75;;;;;;;24.64;35.77;96875.69;4979788;28;20119;-67
2021/09/12 08:18:43;;;;;;;22.85;11.30;;;;;;;25.16;38.24;96920.88;4980831;28;20061;-66
2021/09/12 08:21:10;;;;;;;12.52;10.43;;;;;;;24.68;36.75;96836.69;4980129;28;20120;-67
2021/09/12 08:23:38;;;;;;;19.35;11.32;;;;;;;25.22;37.93;96918.22;4981453;28;20062;-66
2021/09/12 08:26:04;;;;;;;15.95;10.95;;;;;;;24.73;36.57;96872.09;4961657;28;20506;-65
2021/09/12 08:28:31;;;;;;;23.23;13.95;;;;;;;24.88;36.52;96892.94;4961733;28;20070;-67
2021/09/12 08:30:58;;;;;;;16.42;11.32;;;;;;;25.39;36.10;96913.06;4961467;28;20081;-68
2021/09/12 08:33:25;;;;;;;18.85;12.27;;;;;;;25.63;35.84;96919.69;4961922;28;20055;-69
2021/09/12 08:35:52;;;;;;;11.35;10.05;;;;;;;25.65;35.66;96902.97;4961172;28;20510;-64
2021/09/12 08:38:18;;;;;;;14.60;11.68;;;;;;;24.84;35.25;96759.88;4960121;28;20506;-67
2021/09/12 08:40:46;;;;;;;19.77;11.32;;;;;;;25.21;34.03;96874.88;4961984;28;20070;-69
2021/09/12 08:43:13;;;;;;;14.68;12.27;;;;;;;25.76;34.58;96914.66;4961254;28;20072;-68
2021/09/12 08:45:40;;;;;;;14.43;11.38;;;;;;;25.41;34.77;96902.81;4961805;28;20046;-67
2021/09/12 08:48:07;;;;;;;15.75;12.23;;;;;;;25.32;35.60;96899.97;4961106;28;20058;-68
2021/09/12 08:50:34;;;;;;;21.40;12.23;;;;;;;25.54;34.28;96908.34;4964225;28;20513;-68
2021/09/12 08:53:01;;;;;;;20.25;11.65;;;;;;;25.72;34.50;96897.00;4963014;28;20055;-67
2021/09/12 08:55:27;;;;;;;23.52;11.85;;;;;;;25.80;33.92;96882.00;4961529;28;20061;-69
2021/09/12 08:57:59;;;;;;;19.50;12.57;;;;;;;25.87;35.29;96895.09;4963412;28;20094;-67
2021/09/12 09:00:26;;;;;;;20.83;12.30;;;;;;;25.71;34.89;96893.38;4963114;28;20082;-68
2021/09/12 09:03:03;;;;;;;14.10;11.32;;;;;;;25.32;34.17;96892.22;4963985;28;20050;-69
2021/09/12 09:05:37;;;;;;;23.40;12.32;;;;;;;25.81;34.88;96885.63;4964565;28;20554;-68
2021/09/12 09:08:05;;;;;;;12.45;11.15;;;;;;;25.48;34.84;96780.53;4963029;28;20051;-69
2021/09/12 09:10:42;;;;;;;16.35;11.00;;;;;;;25.65;34.14;96834.88;4964665;28;20046;-68
2021/09/12 09:13:35;;;;;;;16.58;11.38;;;;;;;25.97;34.93;96885.31;4964364;28;20532;-68
2021/09/12 09:16:08;;;;;;;23.70;14.18;;;;;;;25.03;34.93;96778.47;4964588;28;20481;-67
2021/09/12 09:18:41;;;;;;;25.92;15.45;;;;;;;25.77;34.51;96842.41;4964554;28;20149;-68
2021/09/12 09:21:28;;;;;;;18.13;12.45;;;;;;;26.08;33.36;96879.94;4964284;28;20585;-68
2021/09/12 09:24:29;;;;;;;12.48;11.20;;;;;;;25.85;33.97;96883.41;4964258;28;20057;-68
2021/09/12 09:27:00;;;;;;;16.85;12.70;;;;;;;25.93;33.89;96874.09;4983511;28;20575;-67
2021/09/12 09:29:31;;;;;;;18.75;11.40;;;;;;;26.14;33.95;96878.84;4983559;28;20064;-68
2021/09/12 09:32:09;;;;;;;15.70;11.52;;;;;;;26.20;34.45;96871.22;4983501;28;20054;-67
2021/09/12 09:34:38;;;;;;;10.25;9.10;;;;;;;25.62;34.58;96865.00;4983765;28;20112;-67
2021/09/12 09:37:10;;;;;;;12.63;10.18;;;;;;;25.90;33.87;96868.59;4983613;28;20088;-68
2021/09/12 09:39:43;;;;;;;15.30;10.87;;;;;;;25.75;33.93;96814.53;4981645;28;20054;-66
2021/09/12 09:42:34;;;;;;;13.35;10.82;;;;;;;25.87;33.68;96875.22;4983341;28;20772;-65
2021/09/12 09:45:22;;;;;;;14.52;10.82;;;;;;;26.09;33.18;96878.66;4983768;28;20444;-68
2021/09/12 09:47:51;;;;;;;19.80;13.00;;;;;;;25.76;34.25;96738.69;4983436;28;20050;-67
2021/09/12 09:50:29;;;;;;;14.15;10.82;;;;;;;26.73;32.60;96868.66;4983296;28;20058;-67
2021/09/12 09:52:56;;;;;;;17.00;11.38;;;;;;;26.38;33.54;96870.38;4983149;28;20080;-68
2021/09/12 09:55:25;;;;;;;20.25;12.88;;;;;;;26.58;33.19;96853.56;4981912;28;20053;-66
2021/09/12 09:57:54;;;;;;;16.60;11.38;;;;;;;26.66;32.25;96817.88;4983492;28;20082;-66
2021/09/12 10:00:24;;;;;;;17.75;12.30;;;;;;;26.65;31.95;96834.13;4983388;28;20066;-67
2021/09/12 10:02:52;;;;;;;19.60;12.23;;;;;;;26.93;32.66;96854.69;4981677;28;20217;-66
2021/09/12 10:05:20;;;;;;;11.85;10.27;;;;;;;27.08;31.74;96861.19;4983447;28;20505;-68
2021/09/12 10:07:48;;;;;;;13.80;11.15;;;;;;;26.80;32.34;96814.31;4982938;28;20187;-67
2021/09/12 10:10:17;;;;;;;12.32;10.13;;;;;;;26.75;32.24;96846.25;4983237;28;20473;-66
2021/09/12 10:12:47;;;;;;;12.90;11.25;;;;;;;27.03;32.22;96841.94;4981694;28;20054;-67
2021/09/12 10:15:27;;;;;;;12.93;11.63;;;;;;;27.31;31.97;96851.91;4983550;28;20062;-67
2021/09/12 10:17:54;;;;;;;18.73;10.60;;;;;;;27.46;31.00;96841.34;4981626;28;20149;-67
2021/09/12 10:20:24;;;;;;;12.77;11.15;;;;;;;27.40;31.24;96846.16;4981847;28;20069;-66
2021/09/12 10:22:58;;;;;;;15.75;11.73;;;;;;;27.19;32.08;96841.53;4981164;28;20054;-66
2021/09/12 10:25:26;;;;;;;15.82;10.73;;;;;;;27.23;32.23;96847.84;4981436;28;20686;-66
2021/09/12 10:27:56;;;;;;;18.20;11.07;;;;;;;26.84;33.17;96851.09;4981810;28;20548;-66
2021/09/12 10:30:26;;;;;;;14.27;10.98;;;;;;;27.00;32.54;96842.94;4982642;28;20058;-66
2021/09/12 10:33:17;;;;;;;14.63;10.40;;;;;;;27.32;31.04;96822.19;4982781;28;20054;-68
2021/09/12 10:35:50;;;;;;;13.52;11.95;;;;;;;27.62;31.65;96837.25;4968231;28;20062;-67
2021/09/12 10:38:29;;;;;;;15.73;11.05;;;;;;;27.87;32.06;96842.38;4982694;28;20156;-68
2021/09/12 10:40:56;;;;;;;13.70;12.30;;;;;;;27.72;31.24;96842.41;4981459;28;20062;-67
2021/09/12 10:43:26;;;;;;;12.38;11.18;;;;;;;27.84;30.43;96831.97;4982440;28;20058;-68
2021/09/12 10:45:58;;;;;;;13.98;11.43;;;;;;;27.83;30.23;96836.91;4982350;28;20078;-67
2021/09/12 10:48:25;;;;;;;17.40;11.70;;;;;;;27.44;30.97;96832.50;4982937;28;20510;-67
2021/09/12 10:50:53;;;;;;;15.02;11.18;;;;;;;27.21;30.73;96830.47;4982488;28;20308;-67
2021/09/12 10:53:48;;;;;;;14.13;9.88;;;;;;;27.04;31.32;96822.84;4982722;28;20066;-67
2021/09/12 10:56:17;;;;;;;14.15;11.13;;;;;;;27.29;31.67;96820.31;4982555;28;20065;-68
2021/09/12 10:58:53;;;;;;;15.10;10.18;;;;;;;27.67;30.51;96817.44;4982321;28;20050;-68
2021/09/12 11:01:38;;;;;;;15.43;10.77;;;;;;;27.84;31.17;96821.38;4981155;28;20042;-68
2021/09/12 11:04:07;;;;;;;11.25;10.00;;;;;;;27.69;30.00;96819.81;4982725;28;20058;-68
2021/09/12 11:06:37;;;;;;;12.50;10.88;;;;;;;27.35;30.23;96749.28;4981382;28;20058;-68
2021/09/12 11:09:15;;;;;;;10.73;9.60;;;;;;;28.04;28.80;96818.66;4980977;28;20534;-68
2021/09/12 11:11:42;;;;;;;11.60;10.38;;;;;;;27.33;29.75;96775.38;4981277;28;20061;-68
2021/09/12 11:14:14;;;;;;;11.43;10.32;;;;;;;27.50;29.41;96767.97;4980664;28;20509;-68
2021/09/12 11:16:41;;;;;;;31.23;16.52;;;;;;;27.47;30.53;96771.00;4980879;28;20059;-68
2021/09/12 11:19:07;;;;;;;16.88;12.18;;;;;;;27.45;31.95;96810.53;4981608;28;20062;-67
2021/09/12 11:21:43;;;;;;;15.90;11.23;;;;;;;27.56;31.71;96803.00;4980773;28;20527;-68
2021/09/12 11:24:12;;;;;;;10.70;9.80;;;;;;;27.61;30.40;96813.72;4980978;28;20053;-69